Data for 07/01/2008

Time Sea-Level Adjusted Pressure Absolute Pressure Temperature Relative Humidity Dew Point   
(mb) (inHg) (mb) (inHg) (C) (F) (%) (C) (F)
00:05 1021 30.15 850 25.1 21.8 71.3 35 5.8 42.4
00:10 1021 30.15 850 25.1 21.5 70.8 36 5.9 42.6
00:15 1021 30.15 850 25.1 21.4 70.6 36 6.1 43
00:20 1021 30.15 850 25.1 21.2 70.2 37 6.2 43.1
00:25 1021 30.15 850 25.1 21 69.8 38 6.2 43.1
00:30 1021 30.15 850 25.1 20.9 69.7 38 6.3 43.4
00:35 1021 30.15 851 25.13 21 69.8 37 5.8 42.5
00:40 1022 30.18 851 25.13 21.1 70 37 6 42.8
00:45 1022 30.18 851 25.13 21.1 70.1 38 6.3 43.4
00:50 1022 30.18 851 25.13 21 69.8 40 6.9 44.4
00:55 1022 30.18 851 25.13 20.7 69.3 40 6.7 44.1
01:00 1022 30.18 851 25.13 20.6 69 39 6.5 43.7
01:05 1022 30.18 851 25.13 19.9 67.8 46 7.9 46.3
01:10 1022 30.18 851 25.13 19.4 67 45 7.2 45
01:15 1022 30.18 851 25.13 19.1 66.5 45 7.1 44.7
01:20 1022 30.18 851 25.13 19 66.3 44 6.7 44
01:25 1022 30.18 851 25.13 19.4 67 42 6.2 43.2
01:30 1022 30.18 851 25.13 19.8 67.6 41 6.3 43.3
01:35 1022 30.18 851 25.13 19.9 67.7 43 7.1 44.8
01:40 1021 30.15 851 25.13 19.2 66.6 49 8.3 47
01:45 1021 30.15 851 25.13 18.8 65.8 49 8 46.5
01:50 1021 30.15 851 25.13 18.4 65 48 7.4 45.3
01:55 1021 30.15 850 25.1 18.3 64.9 48 7.1 44.9
02:00 1021 30.15 851 25.13 18.3 64.9 48 7.1 44.8
02:05 1021 30.15 851 25.13 18.5 65.2 50 8 46.4
02:10 1021 30.15 850 25.1 18.3 65 49 7.4 45.4
02:15 1021 30.15 850 25.1 17.8 64.1 48 6.8 44.3
02:20 1021 30.15 850 25.1 18 64.4 46 6.4 43.4
02:25 1021 30.15 850 25.1 18.2 64.8 45 6.4 43.5
02:30 1021 30.15 850 25.1 18.4 65.1 45 6.2 43.2
02:35 1021 30.15 850 25.1 18.6 65.5 46 6.8 44.2
02:40 1021 30.15 850 25.1 18.5 65.3 48 7.5 45.5
02:45 1021 30.15 850 25.1 18.3 65 47 7 44.6
02:50 1021 30.15 850 25.1 18 64.4 44 5.9 42.5
02:55 1021 30.15 850 25.1 18.3 64.9 42 5.3 41.6
03:00 1021 30.15 850 25.1 18.8 65.8 45 6.7 44.1
03:05 1021 30.15 850 25.1 18.9 66.1 44 6.5 43.6
03:10 1021 30.15 850 25.1 18.1 64.7 45 6 42.9
03:15 1021 30.15 850 25.1 17.7 63.9 46 6.2 43.2
03:20 1021 30.15 850 25.1 17.2 62.9 46 5.7 42.2
03:25 1021 30.15 850 25.1 17.1 62.8 47 5.9 42.6
03:30 1020 30.12 850 25.1 17.1 62.8 48 6.2 43.2
03:35 1020 30.12 850 25.1 16.8 62.2 50 6.4 43.5
03:40 1020 30.12 849 25.07 16.3 61.4 54 7.1 44.7
03:45 1020 30.12 850 25.1 15.8 60.4 55 6.9 44.5
03:50 1020 30.12 850 25.1 15.7 60.2 53 6.1 43
03:55 1020 30.12 850 25.1 16.1 60.9 52 6.2 43.2
04:00 1020 30.12 850 25.1 16.1 61 50 5.9 42.5
04:05 1020 30.12 849 25.07 16.4 61.5 49 5.9 42.6
04:10 1020 30.12 849 25.07 16.2 61.2 51 6.3 43.3
04:15 1020 30.12 849 25.07 16.5 61.6 50 6.2 43.2
04:20 1020 30.12 849 25.07 16.2 61.1 52 6.5 43.6
04:25 1020 30.12 849 25.07 15.9 60.5 55 6.9 44.5
04:30 1020 30.12 849 25.07 15.2 59.4 58 7 44.6
04:35 1020 30.12 849 25.07 15 59 60 7.3 45.2
04:40 1020 30.12 849 25.07 15 59 56 6.3 43.4
04:45 1020 30.12 849 25.07 15.4 59.7 55 6.5 43.8
04:50 1020 30.12 849 25.07 15.5 59.9 54 6.4 43.6
04:55 1020 30.12 849 25.07 15.4 59.8 55 6.6 44
05:00 1020 30.12 849 25.07 15.6 60.1 54 6.5 43.7
05:05 1020 30.12 849 25.07 15.6 60.2 54 6.5 43.8
05:10 1020 30.12 849 25.07 15.7 60.2 53 6.1 43
05:15 1020 30.12 849 25.07 16.1 60.9 51 5.9 42.7
05:20 1020 30.12 849 25.07 16.6 61.9 49 6.1 42.9
05:25 1020 30.12 849 25.07 16.5 61.7 51 6.4 43.5
05:30 1020 30.12 849 25.07 16.3 61.4 52 6.5 43.7
05:35 1020 30.12 849 25.07 16.3 61.3 52 6.4 43.5
05:40 1020 30.12 849 25.07 16.2 61.2 53 6.8 44.3
05:45 1020 30.12 849 25.07 16 60.9 53 6.6 43.9
05:50 1020 30.12 850 25.1 16.3 61.4 53 6.9 44.4
05:55 1020 30.12 850 25.1 16.6 61.8 51 6.4 43.6
06:00 1020 30.12 850 25.1 16.6 61.9 53 7 44.6
06:05 1020 30.12 850 25.1 16.7 62.1 51 6.6 43.8
06:10 1020 30.12 850 25.1 16.9 62.4 48 5.9 42.6
06:15 1021 30.15 850 25.1 17.3 63.2 48 6.2 43.2
06:20 1021 30.15 850 25.1 17.3 63.2 52 7.6 45.7
06:25 1021 30.15 850 25.1 17.5 63.5 47 6.1 43
06:30 1021 30.15 850 25.1 17.7 63.9 48 6.6 43.8
06:35 1021 30.15 850 25.1 17 62.6 50 6.6 43.8
06:40 1021 30.15 850 25.1 16.4 61.6 51 6.5 43.6
06:45 1021 30.15 850 25.1 16.3 61.3 52 6.4 43.5
06:50 1021 30.15 850 25.1 16.5 61.7 49 5.8 42.5
06:55 1021 30.15 850 25.1 16.4 61.6 52 6.6 43.9
07:00 1021 30.15 850 25.1 16.4 61.5 50 6.1 42.9
07:05 1021 30.15 850 25.1 16.8 62.2 53 7.1 44.8
07:10 1021 30.15 850 25.1 17 62.7 52 7.3 45.1
07:15 1021 30.15 850 25.1 17.3 63.1 52 7.5 45.5
07:20 1021 30.15 850 25.1 17.3 63.2 51 7.3 45.2
07:25 1021 30.15 850 25.1 17.4 63.3 52 7.7 45.8
07:30 1021 30.15 850 25.1 18 64.4 50 7.6 45.7
07:35 1021 30.15 850 25.1 18.7 65.7 47 7.4 45.4
07:40 1021 30.15 850 25.1 19.2 66.6 48 7.9 46.3
07:45 1021 30.15 850 25.1 19.5 67.1 46 7.6 45.7
07:50 1021 30.15 850 25.1 19.5 67.1 46 7.7 45.9
07:55 1021 30.15 850 25.1 19.2 66.6 48 7.9 46.3
08:00 1021 30.15 850 25.1 19.2 66.5 46 7.5 45.6
08:05 1021 30.15 851 25.13 19.3 66.7 43 6.4 43.6
08:10 1021 30.15 851 25.13 19.3 66.8 45 7.3 45.1
08:15 1021 30.15 851 25.13 20 68 43 7 44.7
08:20 1021 30.15 851 25.13 20.3 68.6 45 8.1 46.6
08:25 1021 30.15 851 25.13 20.5 68.9 44 8 46.5
08:30 1021 30.15 850 25.1 20.6 69 44 7.9 46.3
08:35 1021 30.15 850 25.1 20.9 69.7 42 7.6 45.7
08:40 1021 30.15 851 25.13 21.4 70.6 40 7.5 45.5
08:45 1021 30.15 851 25.13 21.4 70.6 39 7.1 44.8
08:50 1021 30.15 851 25.13 22 71.5 38 7.1 44.8
08:55 1021 30.15 851 25.13 23.2 73.7 35 7.3 45.1
09:00 1021 30.15 851 25.13 23.6 74.5 35 7.4 45.4
09:05 1021 30.15 851 25.13 23.5 74.3 37 8.1 46.5
09:10 1021 30.15 851 25.13 23.3 73.9 36 7.7 45.9
09:15 1021 30.15 850 25.1 23.7 74.7 34 7.2 45
09:20 1021 30.15 850 25.1 24.1 75.4 35 8.1 46.6
09:25 1021 30.15 850 25.1 24.6 76.2 35 8.2 46.8
09:30 1021 30.15 850 25.1 24.8 76.6 33 7.9 46.2
09:35 1021 30.15 850 25.1 25.1 77.1 32 7.5 45.5
09:40 1021 30.15 850 25.1 25.9 78.7 31 7.9 46.1
09:45 1021 30.15 850 25.1 25.5 77.9 33 8.2 46.8
09:50 1021 30.15 850 25.1 24.6 76.4 35 8.5 47.2
09:55 1021 30.15 850 25.1 24.3 75.8 35 8 46.4
10:00 1021 30.15 850 25.1 24.3 75.7 36 8.3 47
10:05 1021 30.15 850 25.1 24.1 75.3 36 8.2 46.8
10:10 1021 30.15 850 25.1 23.6 74.4 39 8.9 48
10:15 1021 30.15 850 25.1 23.3 73.9 39 8.8 47.8
10:20 1021 30.15 850 25.1 23 73.3 38 8.2 46.8
10:25 1021 30.15 850 25.1 23 73.4 39 8.4 47.1
10:30 1021 30.15 850 25.1 23.3 74 38 8.3 47
10:35 1021 30.15 850 25.1 23.2 73.8 39 8.5 47.4
10:40 1021 30.15 850 25.1 23.1 73.5 40 8.8 47.9
10:45 1021 30.15 850 25.1 23.2 73.8 41 9.4 48.9
10:50 1021 30.15 850 25.1 23.2 73.7 41 9.4 48.9
10:55 1021 30.15 850 25.1 22.9 73.3 43 9.9 49.8
11:00 1021 30.15 850 25.1 22.6 72.7 43 9.5 49
11:05 1021 30.15 850 25.1 22.7 72.9 43 9.8 49.6
11:10 1021 30.15 850 25.1 22.8 73 41 9.2 48.5
11:15 1021 30.15 850 25.1 23.1 73.5 40 9 48.2
11:20 1021 30.15 850 25.1 23.8 74.8 38 8.9 48.1
11:25 1021 30.15 850 25.1 23.8 74.8 40 9.7 49.5
11:30 1021 30.15 850 25.1 23.7 74.7 41 9.9 49.8
11:35 1021 30.15 850 25.1 23.3 73.9 44 10.4 50.7
11:40 1021 30.15 850 25.1 22.6 72.6 46 10.5 51
11:45 1021 30.15 850 25.1 22.7 72.8 45 10.3 50.6
11:50 1021 30.15 850 25.1 22.6 72.6 44 9.8 49.6
11:55 1021 30.15 850 25.1 22.8 73 42 9.3 48.7
12:00 1021 30.15 850 25.1 23 73.4 42 9.6 49.3
12:05 1021 30.15 850 25.1 23 73.5 42 9.7 49.5
12:10 1021 30.15 851 25.13 22.6 72.8 45 10.4 50.7
12:15 1021 30.15 851 25.13 22.5 72.5 43 9.5 49.1
12:20 1021 30.15 851 25.13 22 71.7 44 9.3 48.7
12:25 1021 30.15 851 25.13 22.2 72 45 9.9 49.8
12:30 1021 30.15 851 25.13 22.5 72.5 44 9.7 49.5
12:35 1021 30.15 851 25.13 22.5 72.5 43 9.5 49.1
12:40 1021 30.15 851 25.13 22.7 72.9 41 9.1 48.3
12:45 1021 30.15 851 25.13 23.2 73.7 39 8.8 47.8
12:50 1022 30.18 851 25.13 23.4 74.1 40 9.4 48.8
12:55 1021 30.15 851 25.13 23.7 74.6 37 8.4 47.1
13:00 1021 30.15 851 25.13 23.4 74 40 9.2 48.6
13:05 1021 30.15 851 25.13 23.4 74.1 40 9.1 48.4
13:10 1021 30.15 851 25.13 23.5 74.3 39 9 48.2
13:15 1021 30.15 851 25.13 22.8 73.1 42 9.3 48.7
13:20 1021 30.15 851 25.13 22.9 73.2 42 9.6 49.4
13:25 1021 30.15 851 25.13 22.7 72.9 43 9.5 49.2
13:30 1021 30.15 851 25.13 23 73.3 41 9.3 48.7
13:35 1021 30.15 851 25.13 23.4 74.1 41 9.7 49.5
13:40 1021 30.15 850 25.1 23.8 74.9 40 9.5 49.2
13:45 1021 30.15 850 25.1 24 75.1 37 8.5 47.3
13:50 1021 30.15 850 25.1 23.7 74.6 42 10.2 50.4
13:55 1021 30.15 850 25.1 23.7 74.7 42 10.2 50.4
14:00 1021 30.15 850 25.1 23.7 74.7 42 10.3 50.6
14:05 1021 30.15 850 25.1 23.1 73.5 42 9.6 49.3
14:10 1021 30.15 850 25.1 23 73.4 42 9.5 49.2
14:15 1021 30.15 850 25.1 23.4 74 41 9.4 48.9
14:20 1021 30.15 850 25.1 23.7 74.7 38 8.9 48.1
14:25 1021 30.15 850 25.1 23.7 74.7 43 10.6 51
14:30 1021 30.15 850 25.1 23.2 73.7 44 10.6 51.1
14:35 1021 30.15 850 25.1 23.2 73.7 43 9.9 49.9
14:40 1021 30.15 850 25.1 23.2 73.8 43 10.2 50.3
14:45 1021 30.15 850 25.1 23.5 74.3 42 9.9 49.9
14:50 1021 30.15 850 25.1 24.3 75.7 37 8.8 47.9
14:55 1020 30.12 850 25.1 24.9 76.8 37 9.5 49.1
15:00 1020 30.12 850 25.1 25.3 77.5 33 8.3 46.9
15:05 1020 30.12 850 25.1 25.2 77.3 33 7.9 46.3
15:10 1020 30.12 850 25.1 25.1 77.1 31 7 44.6
15:15 1020 30.12 850 25.1 24.5 76 33 7.5 45.5
15:20 1021 30.15 850 25.1 25.1 77.1 31 6.8 44.3
15:25 1021 30.15 850 25.1 25.1 77.3 31 7.1 44.9
15:30 1020 30.12 850 25.1 25.3 77.6 30 6.7 44.1
15:35 1021 30.15 850 25.1 25.8 78.4 29 6.7 44.1
15:40 1021 30.15 850 25.1 25.6 78.2 32 8.1 46.6
15:45 1021 30.15 850 25.1 23.8 74.9 35 7.7 45.9
15:50 1021 30.15 850 25.1 23.6 74.4 36 8 46.3
15:55 1021 30.15 850 25.1 23.6 74.4 43 10.3 50.6
16:00 1021 30.15 851 25.13 22.9 73.1 40 8.6 47.6
16:05 1021 30.15 851 25.13 21.4 70.5 43 8.5 47.3
16:10 1021 30.15 851 25.13 20.8 69.4 43 8 46.4
16:15 1021 30.15 851 25.13 20.6 69.1 44 8.2 46.8
16:20 1021 30.15 851 25.13 20.5 68.9 45 8.2 46.8
16:25 1021 30.15 851 25.13 20.4 68.7 45 8.3 47
16:30 1021 30.15 851 25.13 20 68.1 55 10.9 51.7
16:35 1022 30.18 851 25.13 19.2 66.5 60 11.4 52.5
16:40 1021 30.15 851 25.13 18.8 65.8 58 10.4 50.7
16:45 1021 30.15 850 25.1 18.8 65.9 54 9.5 49.1
16:50 1021 30.15 850 25.1 19.2 66.5 57 10.7 51.3
16:55 1020 30.12 850 25.1 19.2 66.5 59 11 51.8
17:00 1020 30.12 849 25.07 19 66.1 60 11.1 52
17:05 1019 30.09 848 25.04 18.8 65.8 53 9.2 48.6
17:10 1019 30.09 848 25.04 19.1 66.4 53 9.3 48.8
17:15 1019 30.09 848 25.04 19.3 66.8 52 9.3 48.8
17:20 1019 30.09 848 25.04 19.5 67.1 51 9.3 48.8
17:25 1019 30.09 848 25.04 19.6 67.3 50 8.9 48
17:30 1019 30.09 849 25.07 19.9 67.8 50 9.3 48.8
17:35 1019 30.09 849 25.07 20.3 68.6 49 9.4 49
17:40 1020 30.12 849 25.07 20.8 69.4 47 9.3 48.7
17:45 1020 30.12 849 25.07 21.1 70 46 9.3 48.7
17:50 1020 30.12 849 25.07 20.9 69.6 50 10.2 50.3
17:55 1020 30.12 849 25.07 20.9 69.6 51 10.6 51.1
18:00 1020 30.12 849 25.07 21.2 70.2 52 11.1 51.9
18:05 1019 30.09 849 25.07 21.4 70.5 51 11 51.8
18:10 1019 30.09 849 25.07 20.8 69.5 52 10.8 51.5
18:15 1019 30.09 849 25.07 20.9 69.5 51 10.6 51
18:20 1019 30.09 849 25.07 21.6 70.8 48 10.4 50.7
18:25 1019 30.09 849 25.07 21.5 70.7 51 11 51.8
18:30 1019 30.09 848 25.04 21.6 71 49 10.5 50.9
18:35 1019 30.09 848 25.04 22 71.7 45 9.7 49.5
18:40 1019 30.09 848 25.04 22.2 72 46 10.3 50.6
18:45 1019 30.09 848 25.04 22.2 71.9 43 9 48.3
18:50 1019 30.09 848 25.04 22.2 71.9 44 9.6 49.3
18:55 1019 30.09 848 25.04 22.3 72.1 45 9.9 49.9
19:00 1019 30.09 848 25.04 22.1 71.7 46 10.1 50.1
19:05 1019 30.09 848 25.04 22.1 71.8 47 10.3 50.6
19:10 1019 30.09 848 25.04 21.9 71.4 49 10.8 51.5
19:15 1019 30.09 848 25.04 21.7 71 48 10.4 50.7
19:20 1019 30.09 848 25.04 21.5 70.7 48 10.3 50.5
19:25 1019 30.09 848 25.04 21.4 70.4 48 10.1 50.2
19:30 1019 30.09 848 25.04 21.3 70.4 47 9.6 49.3
19:35 1019 30.09 848 25.04 21.3 70.3 47 9.6 49.2
19:40 1019 30.09 848 25.04 21.3 70.4 45 8.9 48.1
19:45 1019 30.09 848 25.04 21.3 70.4 46 9.4 49
19:50 1019 30.09 848 25.04 21 69.8 48 9.9 49.7
19:55 1019 30.09 848 25.04 20.3 68.5 52 10.2 50.3
20:00 1019 30.09 848 25.04 19.5 67.1 53 9.8 49.6
20:05 1019 30.09 848 25.04 19.1 66.4 54 9.7 49.5
20:10 1019 30.09 848 25.04 18.9 66 54 9.6 49.2
20:15 1019 30.09 848 25.04 18.7 65.7 55 9.7 49.5
20:20 1019 30.09 849 25.07 18.4 65.2 56 9.6 49.4
20:25 1019 30.09 849 25.07 18.2 64.8 56 9.5 49.1
20:30 1019 30.09 849 25.07 18.2 64.7 57 9.5 49.1
20:35 1019 30.09 848 25.04 18.1 64.5 58 9.8 49.6
20:40 1019 30.09 848 25.04 18 64.3 58 9.7 49.5
20:45 1019 30.09 848 25.04 17.9 64.2 59 9.9 49.8
20:50 1019 30.09 848 25.04 17.8 64 60 10 50
20:55 1019 30.09 848 25.04 17.7 63.8 60 10 50
21:00 1019 30.09 848 25.04 17.5 63.6 61 9.9 49.9
21:05 1019 30.09 848 25.04 17.4 63.3 61 9.9 49.9
21:10 1019 30.09 848 25.04 17.2 63 62 10 50
21:15 1019 30.09 848 25.04 17.1 62.8 63 10.1 50.1
21:20 1019 30.09 848 25.04 17 62.6 64 10.1 50.2
21:25 1019 30.09 848 25.04 16.9 62.4 64 10.1 50.2
21:30 1019 30.09 848 25.04 16.9 62.5 64 10.1 50.1
21:35 1019 30.09 848 25.04 16.9 62.5 64 10.1 50.2
21:40 1019 30.09 848 25.04 16.9 62.4 64 10.1 50.1
21:45 1019 30.09 848 25.04 16.9 62.3 64 10.1 50.2
21:50 1019 30.09 848 25.04 16.8 62.3 64 10.1 50.2
21:55 1019 30.09 848 25.04 16.7 62.1 65 10.1 50.2
22:00 1019 30.09 848 25.04 16.7 62 66 10.3 50.5
22:05 1019 30.09 848 25.04 16.5 61.7 67 10.4 50.7
22:10 1019 30.09 848 25.04 16.3 61.3 68 10.5 50.8
22:15 1019 30.09 848 25.04 16.1 61.1 69 10.4 50.8
22:20 1019 30.09 848 25.04 16.1 60.9 69 10.5 50.9
22:25 1019 30.09 848 25.04 16 60.7 69 10.3 50.6
22:30 1019 30.09 848 25.04 16 60.8 69 10.4 50.8
22:35 1019 30.09 848 25.04 15.9 60.6 70 10.4 50.7
22:40 1019 30.09 848 25.04 15.9 60.5 69 10.4 50.6
22:45 1019 30.09 848 25.04 15.9 60.6 69 10.3 50.5
22:50 1019 30.09 848 25.04 15.9 60.6 69 10.3 50.5
22:55 1019 30.09 849 25.07 16 60.7 69 10.3 50.5
23:00 1019 30.09 849 25.07 16 60.7 68 10 50.1
23:05 1019 30.09 849 25.07 16.1 60.9 67 10.1 50.2
23:10 1020 30.12 849 25.07 16.1 61.1 68 10.3 50.5
23:15 1020 30.12 849 25.07 16.1 60.9 68 10.2 50.3
23:20 1020 30.12 849 25.07 16.1 60.9 68 10.2 50.4
23:25 1020 30.12 849 25.07 16.1 60.9 68 10.2 50.3
23:30 1020 30.12 849 25.07 16.2 61.1 67 10 50
23:35 1020 30.12 849 25.07 16.2 61.2 66 10 50
23:40 1020 30.12 849 25.07 16.2 61.2 67 10.2 50.4
23:45 1020 30.12 849 25.07 16 60.8 67 10 50
23:50 1020 30.12 850 25.1 16.1 61 66 9.8 49.7
23:55 1020 30.12 850 25.1 16.1 61 66 9.9 49.9
24:00 1021 30.15 850 25.1 16.3 61.4 67 10.2 50.4